Time;durP1;ratioP1;P1;durP2;ratioP2;P2;SDS_P1;SDS_P2;PMS_P1;PMS_P2;Temp;Humidity;BMP_temperature;BMP_pressure;BME280_temperature;BME280_humidity;BME280_pressure;Samples;Min_cycle;Max_cycle;Signal;HPM_P1;HPM_P2
2022/12/16 00:01:04;;;;;;;37.63;15.47;;;-0.40;96.70;;;;;;5068423;28;20189;-67
2022/12/16 00:03:33;;;;;;;38.87;15.70;;;-0.30;96.70;;;;;;5066510;28;20527;-67
2022/12/16 00:06:02;;;;;;;37.23;15.87;;;-0.40;96.60;;;;;;5068704;28;20224;-67
2022/12/16 00:08:31;;;;;;;38.83;15.10;;;-0.20;96.80;;;;;;5067634;28;20633;-67
2022/12/16 00:11:02;;;;;;;34.53;14.60;;;-0.30;96.70;;;;;;5067918;28;20204;-67
2022/12/16 00:13:31;;;;;;;44.07;17.53;;;-0.70;96.50;;;;;;5068296;28;20197;-67
2022/12/16 00:15:58;;;;;;;42.90;17.00;;;-0.40;96.70;;;;;;5067484;28;20185;-67
2022/12/16 00:18:25;;;;;;;43.73;17.53;;;-0.40;96.70;;;;;;5067857;28;20208;-68
2022/12/16 00:20:55;;;;;;;34.87;15.47;;;-0.40;97.00;;;;;;5066334;28;20197;-68
2022/12/16 00:23:22;;;;;;;37.37;14.73;;;-0.10;96.90;;;;;;5067740;28;20219;-66
2022/12/16 00:25:50;;;;;;;47.27;18.90;;;-0.20;97.00;;;;;;5067326;28;20201;-67
2022/12/16 00:28:21;;;;;;;40.40;16.97;;;-0.20;97.00;;;;;;5067950;28;20197;-67
2022/12/16 00:30:49;;;;;;;48.97;18.37;;;-0.40;96.90;;;;;;5068352;28;20372;-67
2022/12/16 00:33:17;;;;;;;46.10;17.40;;;-0.40;96.90;;;;;;5067343;28;20185;-67
2022/12/16 00:35:45;;;;;;;40.57;16.83;;;-0.40;97.00;;;;;;5067155;28;20680;-67
2022/12/16 00:38:14;;;;;;;39.00;15.83;;;-0.30;97.00;;;;;;5067073;28;20314;-67
2022/12/16 00:40:41;;;;;;;47.47;18.53;;;-0.10;97.20;;;;;;5068011;28;20624;-67
2022/12/16 00:43:08;;;;;;;51.00;19.87;;;-0.20;97.00;;;;;;5067363;28;20681;-67
2022/12/16 00:45:35;;;;;;;40.07;16.03;;;-0.30;96.90;;;;;;5066412;28;20582;-67
2022/12/16 00:48:02;;;;;;;46.17;18.20;;;-0.30;96.90;;;;;;5067158;28;20189;-67
2022/12/16 00:50:29;;;;;;;42.80;17.40;;;-0.30;96.90;;;;;;5068391;28;20250;-67
2022/12/16 00:52:57;;;;;;;36.50;15.20;;;-0.30;96.90;;;;;;5067895;28;20200;-67
2022/12/16 00:55:25;;;;;;;32.30;13.97;;;-0.30;97.30;;;;;;5067802;28;20196;-68
2022/12/16 00:57:52;;;;;;;28.83;13.47;;;0.00;97.10;;;;;;5066791;28;20670;-68
2022/12/16 01:00:21;;;;;;;33.70;14.40;;;-0.30;96.90;;;;;;5067962;28;20215;-68
2022/12/16 01:02:50;;;;;;;43.80;16.63;;;-0.20;97.00;;;;;;5066633;28;20185;-68
2022/12/16 01:05:20;;;;;;;41.67;15.53;;;-0.10;97.00;;;;;;5067673;28;20229;-67
2022/12/16 01:07:48;;;;;;;39.37;17.03;;;-0.20;97.00;;;;;;5066908;28;20188;-68
2022/12/16 01:10:18;;;;;;;43.87;16.87;;;-0.20;96.90;;;;;;5067384;28;20201;-67
2022/12/16 01:12:47;;;;;;;39.30;16.17;;;-0.30;97.00;;;;;;5067084;28;20232;-67
2022/12/16 01:15:14;;;;;;;38.00;15.23;;;-0.20;97.00;;;;;;5067824;28;20723;-68
2022/12/16 01:17:41;;;;;;;36.33;14.57;;;-0.20;97.00;;;;;;5066081;28;20203;-68
2022/12/16 01:20:10;;;;;;;33.63;14.90;;;-0.10;97.00;;;;;;5067966;28;20194;-68
2022/12/16 01:22:37;;;;;;;34.03;14.00;;;-0.20;97.00;;;;;;5067541;28;20193;-67
2022/12/16 01:25:05;;;;;;;33.70;13.80;;;-0.20;97.00;;;;;;5048416;28;20202;-67
2022/12/16 01:27:32;;;;;;;29.90;12.53;;;-0.20;97.00;;;;;;5045588;28;20288;-68
2022/12/16 01:30:01;;;;;;;37.93;15.60;;;0.20;97.20;;;;;;5067954;28;20197;-67
2022/12/16 01:32:28;;;;;;;37.23;14.97;;;-0.20;97.00;;;;;;5066578;28;20272;-67
2022/12/16 01:34:56;;;;;;;37.43;14.30;;;-0.10;97.00;;;;;;5067346;28;20201;-67
2022/12/16 01:37:23;;;;;;;40.80;15.63;;;-0.20;96.90;;;;;;5067171;28;20277;-67
2022/12/16 01:39:51;;;;;;;34.43;13.80;;;0.10;97.10;;;;;;5070755;28;20200;-67
2022/12/16 01:42:21;;;;;;;38.97;15.43;;;-0.20;96.90;;;;;;5051438;28;20186;-67
2022/12/16 01:44:51;;;;;;;33.57;13.73;;;-0.20;96.90;;;;;;5052415;28;20186;-67
2022/12/16 01:47:24;;;;;;;33.37;14.20;;;-0.20;96.90;;;;;;5051365;28;20590;-67
2022/12/16 01:49:58;;;;;;;39.30;16.20;;;-0.20;96.90;;;;;;5052345;28;20550;-67
2022/12/16 01:52:30;;;;;;;33.00;14.37;;;-0.20;97.00;;;;;;5052284;28;20186;-67
2022/12/16 01:55:02;;;;;;;30.83;12.47;;;0.00;97.20;;;;;;5069124;28;20185;-67
2022/12/16 01:57:33;;;;;;;28.40;11.90;;;0.00;97.10;;;;;;5070432;28;20208;-67
2022/12/16 02:00:02;;;;;;;29.27;12.37;;;-0.20;97.10;;;;;;5071238;28;20213;-68
2022/12/16 02:02:42;;;;;;;35.13;13.53;;;-0.20;97.10;;;;;;5069767;28;20189;-67
2022/12/16 02:05:23;;;;;;;33.10;13.47;;;-0.20;97.10;;;;;;5050934;28;20758;-67
2022/12/16 02:07:59;;;;;;;37.53;14.47;;;-0.20;97.30;;;;;;5051754;28;20275;-68
2022/12/16 02:10:39;;;;;;;38.43;15.23;;;-0.20;97.10;;;;;;5034610;28;20202;-68
2022/12/16 02:13:16;;;;;;;28.67;12.23;;;-0.10;97.10;;;;;;5051500;28;20255;-68
2022/12/16 02:15:52;;;;;;;33.80;13.37;;;-0.10;97.00;;;;;;5068924;28;20200;-66
2022/12/16 02:18:31;;;;;;;40.87;16.03;;;-0.20;97.00;;;;;;5051041;28;20185;-67
2022/12/16 02:21:18;;;;;;;37.70;15.07;;;-0.20;97.10;;;;;;5051824;28;20276;-68
2022/12/16 02:24:17;;;;;;;43.27;16.87;;;-0.20;97.20;;;;;;5068853;28;20209;-68
2022/12/16 02:27:35;;;;;;;48.13;17.83;;;-0.20;97.30;;;;;;5070119;28;20205;-68
2022/12/16 02:30:22;;;;;;;37.87;14.63;;;-0.20;97.20;;;;;;5046350;28;20578;-68
2022/12/16 02:33:01;;;;;;;38.00;14.60;;;-0.20;97.20;;;;;;5064907;28;20196;-68
2022/12/16 02:35:33;;;;;;;33.13;13.97;;;-0.20;97.30;;;;;;5051524;28;20188;-68
2022/12/16 02:38:14;;;;;;;47.03;17.97;;;-0.10;97.40;;;;;;5069902;28;20185;-67
2022/12/16 02:40:45;;;;;;;42.27;16.17;;;0.00;97.40;;;;;;5049478;28;20193;-68
2022/12/16 02:43:19;;;;;;;33.67;13.80;;;-0.10;97.40;;;;;;5050584;28;20651;-68
2022/12/16 02:45:47;;;;;;;37.13;14.73;;;-0.10;97.30;;;;;;5068696;28;20201;-67
2022/12/16 02:48:15;;;;;;;34.73;13.60;;;-0.10;97.30;;;;;;5034481;28;20255;-67
2022/12/16 02:50:46;;;;;;;34.50;13.10;;;0.00;97.30;;;;;;5050892;28;20284;-67
2022/12/16 02:53:14;;;;;;;26.40;11.30;;;0.00;97.20;;;;;;5050371;28;20823;-68
2022/12/16 02:55:52;;;;;;;33.40;12.97;;;0.10;97.20;;;;;;5033005;28;20535;-67
2022/12/16 02:58:26;;;;;;;28.13;12.10;;;0.50;97.30;;;;;;5067722;28;20216;-67
2022/12/16 03:01:05;;;;;;;32.40;13.30;;;0.10;97.10;;;;;;5069367;28;20181;-67
2022/12/16 03:03:40;;;;;;;38.90;14.80;;;0.10;97.00;;;;;;5068650;28;20233;-67
2022/12/16 03:06:09;;;;;;;31.70;13.37;;;0.10;97.00;;;;;;5069638;28;20212;-67
2022/12/16 03:08:42;;;;;;;35.83;14.63;;;0.10;97.00;;;;;;5045830;28;20255;-67
2022/12/16 03:11:09;;;;;;;30.83;12.20;;;0.30;97.10;;;;;;5050162;28;20193;-67
2022/12/16 03:13:42;;;;;;;42.10;17.00;;;-0.10;97.00;;;;;;5048341;28;20242;-67
2022/12/16 03:16:13;;;;;;;42.73;17.33;;;0.00;97.00;;;;;;5049920;28;20265;-68
2022/12/16 03:18:44;;;;;;;37.67;15.70;;;0.10;97.20;;;;;;5050120;28;20247;-67
2022/12/16 03:21:14;;;;;;;33.27;13.47;;;-0.30;96.90;;;;;;5035577;28;20189;-67
2022/12/16 03:23:50;;;;;;;34.60;13.90;;;0.00;97.00;;;;;;5068680;28;20265;-67
2022/12/16 03:26:23;;;;;;;31.80;13.13;;;0.00;97.00;;;;;;5050159;28;20193;-67
2022/12/16 03:28:56;;;;;;;40.80;15.67;;;0.10;97.00;;;;;;5049752;28;20542;-67
2022/12/16 03:31:31;;;;;;;34.70;14.57;;;0.10;97.00;;;;;;5050149;28;20201;-67
2022/12/16 03:34:09;;;;;;;41.27;17.00;;;0.10;97.00;;;;;;5067167;28;20554;-68
2022/12/16 03:36:38;;;;;;;29.97;12.77;;;0.10;96.90;;;;;;5069217;28;20550;-67
2022/12/16 03:39:07;;;;;;;45.60;18.13;;;0.00;97.00;;;;;;5066393;28;20197;-68
2022/12/16 03:41:35;;;;;;;50.20;18.90;;;0.10;97.00;;;;;;5050006;28;20659;-68
2022/12/16 03:44:03;;;;;;;53.67;20.90;;;0.00;97.00;;;;;;5050033;28;20277;-67
2022/12/16 03:46:30;;;;;;;51.47;19.83;;;0.00;97.00;;;;;;5049547;28;20210;-67
2022/12/16 03:48:57;;;;;;;48.90;19.13;;;0.10;97.10;;;;;;5049456;28;20608;-68
2022/12/16 03:51:25;;;;;;;48.57;18.63;;;-0.10;97.10;;;;;;5050497;28;20194;-68
2022/12/16 03:53:54;;;;;;;48.53;19.43;;;-0.10;97.20;;;;;;5048841;28;20190;-68
2022/12/16 03:56:21;;;;;;;41.57;17.90;;;-0.10;97.30;;;;;;5049824;28;20201;-68
2022/12/16 03:58:48;;;;;;;36.87;15.87;;;-0.10;97.30;;;;;;5049430;28;20533;-68
2022/12/16 04:01:15;;;;;;;41.63;16.00;;;-0.10;97.30;;;;;;5049517;28;20238;-68
2022/12/16 04:03:43;;;;;;;36.37;14.90;;;0.10;97.40;;;;;;5066464;28;20233;-68
2022/12/16 04:06:10;;;;;;;32.93;12.30;;;-0.10;97.30;;;;;;5068955;28;20197;-68
2022/12/16 04:08:38;;;;;;;33.70;13.50;;;-0.10;97.30;;;;;;5049237;28;20198;-68
2022/12/16 04:25:03;;;;;;;56.77;20.20;;;0.80;97.90;;;;;;5067851;28;20318;-67
2022/12/16 04:27:30;;;;;;;48.97;19.33;;;-0.20;97.50;;;;;;5048702;28;20244;-67
